sensor_id;sensor_type;location;lat;lon;timestamp;P1;durP1;ratioP1;P2;durP2;ratioP2
59514;SDS011;46082;43.034;-0.072;2022-10-17T00:01:58;3.38;;;1.70;;
59514;SDS011;46082;43.034;-0.072;2022-10-17T00:04:25;2.00;;;1.08;;
59514;SDS011;46082;43.034;-0.072;2022-10-17T00:06:51;7.10;;;1.08;;
59514;SDS011;46082;43.034;-0.072;2022-10-17T00:09:17;4.63;;;1.13;;
59514;SDS011;46082;43.034;-0.072;2022-10-17T00:11:43;4.82;;;1.23;;
59514;SDS011;46082;43.034;-0.072;2022-10-17T00:14:09;6.82;;;1.30;;
59514;SDS011;46082;43.034;-0.072;2022-10-17T00:16:35;5.35;;;1.17;;
59514;SDS011;46082;43.034;-0.072;2022-10-17T00:19:05;5.68;;;1.25;;
59514;SDS011;46082;43.034;-0.072;2022-10-17T00:21:32;2.05;;;1.63;;
59514;SDS011;46082;43.034;-0.072;2022-10-17T00:23:59;1.88;;;1.00;;
59514;SDS011;46082;43.034;-0.072;2022-10-17T00:26:25;5.97;;;1.98;;
59514;SDS011;46082;43.034;-0.072;2022-10-17T00:28:53;3.20;;;1.50;;
59514;SDS011;46082;43.034;-0.072;2022-10-17T00:31:20;1.05;;;0.80;;
59514;SDS011;46082;43.034;-0.072;2022-10-17T00:33:46;2.85;;;0.90;;
59514;SDS011;46082;43.034;-0.072;2022-10-17T00:36:14;2.50;;;0.98;;
59514;SDS011;46082;43.034;-0.072;2022-10-17T00:38:41;1.25;;;0.90;;
59514;SDS011;46082;43.034;-0.072;2022-10-17T00:41:07;4.28;;;1.05;;
59514;SDS011;46082;43.034;-0.072;2022-10-17T00:46:19;3.00;;;1.30;;
59514;SDS011;46082;43.034;-0.072;2022-10-17T00:48:45;4.57;;;2.45;;
59514;SDS011;46082;43.034;-0.072;2022-10-17T00:51:12;2.78;;;1.10;;
59514;SDS011;46082;43.034;-0.072;2022-10-17T00:53:39;3.25;;;1.10;;
59514;SDS011;46082;43.034;-0.072;2022-10-17T00:56:05;5.90;;;1.35;;
59514;SDS011;46082;43.034;-0.072;2022-10-17T00:58:31;3.15;;;1.20;;
59514;SDS011;46082;43.034;-0.072;2022-10-17T01:00:57;1.90;;;1.10;;
59514;SDS011;46082;43.034;-0.072;2022-10-17T01:03:24;2.65;;;1.00;;
59514;SDS011;46082;43.034;-0.072;2022-10-17T01:05:50;1.45;;;0.90;;
59514;SDS011;46082;43.034;-0.072;2022-10-17T01:08:16;2.53;;;0.98;;
59514;SDS011;46082;43.034;-0.072;2022-10-17T01:13:56;2.63;;;1.10;;
59514;SDS011;46082;43.034;-0.072;2022-10-17T01:16:08;5.65;;;1.67;;
59514;SDS011;46082;43.034;-0.072;2022-10-17T01:18:39;1.95;;;1.33;;
59514;SDS011;46082;43.034;-0.072;2022-10-17T01:28:50;5.05;;;2.22;;
59514;SDS011;46082;43.034;-0.072;2022-10-17T01:31:22;6.85;;;1.38;;
59514;SDS011;46082;43.034;-0.072;2022-10-17T01:33:57;4.15;;;1.40;;
59514;SDS011;46082;43.034;-0.072;2022-10-17T01:36:35;2.42;;;1.02;;
59514;SDS011;46082;43.034;-0.072;2022-10-17T01:41:39;6.18;;;1.13;;
59514;SDS011;46082;43.034;-0.072;2022-10-17T01:44:17;1.95;;;1.02;;
59514;SDS011;46082;43.034;-0.072;2022-10-17T01:46:48;1.60;;;1.05;;
59514;SDS011;46082;43.034;-0.072;2022-10-17T01:49:15;2.70;;;1.20;;
59514;SDS011;46082;43.034;-0.072;2022-10-17T01:54:14;2.67;;;1.55;;
59514;SDS011;46082;43.034;-0.072;2022-10-17T01:56:41;1.38;;;1.02;;
59514;SDS011;46082;43.034;-0.072;2022-10-17T01:59:13;5.07;;;1.20;;
59514;SDS011;46082;43.034;-0.072;2022-10-17T02:01:41;3.22;;;1.23;;
59514;SDS011;46082;43.034;-0.072;2022-10-17T02:04:08;1.13;;;1.00;;
59514;SDS011;46082;43.034;-0.072;2022-10-17T02:06:36;8.98;;;1.20;;
59514;SDS011;46082;43.034;-0.072;2022-10-17T02:12:01;1.70;;;0.93;;
59514;SDS011;46082;43.034;-0.072;2022-10-17T02:19:49;1.48;;;0.85;;
59514;SDS011;46082;43.034;-0.072;2022-10-17T02:24:48;4.70;;;1.30;;
59514;SDS011;46082;43.034;-0.072;2022-10-17T02:27:40;6.75;;;1.02;;
59514;SDS011;46082;43.034;-0.072;2022-10-17T02:32:37;2.33;;;1.00;;
59514;SDS011;46082;43.034;-0.072;2022-10-17T02:35:04;2.13;;;1.25;;
59514;SDS011;46082;43.034;-0.072;2022-10-17T02:37:32;5.47;;;1.25;;
59514;SDS011;46082;43.034;-0.072;2022-10-17T02:39:59;2.53;;;0.90;;
59514;SDS011;46082;43.034;-0.072;2022-10-17T02:42:25;3.10;;;1.10;;
59514;SDS011;46082;43.034;-0.072;2022-10-17T02:44:53;3.67;;;1.30;;
59514;SDS011;46082;43.034;-0.072;2022-10-17T02:49:52;2.28;;;0.98;;
59514;SDS011;46082;43.034;-0.072;2022-10-17T02:52:34;3.67;;;1.17;;
59514;SDS011;46082;43.034;-0.072;2022-10-17T02:55:09;1.48;;;0.88;;
59514;SDS011;46082;43.034;-0.072;2022-10-17T02:57:38;5.53;;;1.23;;
59514;SDS011;46082;43.034;-0.072;2022-10-17T03:00:06;1.75;;;1.02;;
59514;SDS011;46082;43.034;-0.072;2022-10-17T03:02:37;4.32;;;1.10;;
59514;SDS011;46082;43.034;-0.072;2022-10-17T03:05:04;3.35;;;1.23;;
59514;SDS011;46082;43.034;-0.072;2022-10-17T03:07:30;3.75;;;1.10;;
59514;SDS011;46082;43.034;-0.072;2022-10-17T03:09:56;3.42;;;1.30;;
59514;SDS011;46082;43.034;-0.072;2022-10-17T03:12:22;1.75;;;1.10;;
59514;SDS011;46082;43.034;-0.072;2022-10-17T03:14:48;1.35;;;1.25;;
59514;SDS011;46082;43.034;-0.072;2022-10-17T03:17:15;3.45;;;1.10;;
59514;SDS011;46082;43.034;-0.072;2022-10-17T03:19:41;1.30;;;1.17;;
59514;SDS011;46082;43.034;-0.072;2022-10-17T03:22:07;5.30;;;1.33;;
59514;SDS011;46082;43.034;-0.072;2022-10-17T03:24:33;4.97;;;2.17;;
59514;SDS011;46082;43.034;-0.072;2022-10-17T03:26:59;1.75;;;1.15;;
59514;SDS011;46082;43.034;-0.072;2022-10-17T03:29:25;4.68;;;1.33;;
59514;SDS011;46082;43.034;-0.072;2022-10-17T03:31:51;8.40;;;1.05;;
59514;SDS011;46082;43.034;-0.072;2022-10-17T03:34:17;3.42;;;1.10;;
59514;SDS011;46082;43.034;-0.072;2022-10-17T03:36:44;2.00;;;1.15;;
59514;SDS011;46082;43.034;-0.072;2022-10-17T03:39:10;2.15;;;1.20;;
59514;SDS011;46082;43.034;-0.072;2022-10-17T03:41:36;2.88;;;1.08;;
59514;SDS011;46082;43.034;-0.072;2022-10-17T03:44:02;2.53;;;0.90;;
59514;SDS011;46082;43.034;-0.072;2022-10-17T03:46:28;1.42;;;0.95;;
59514;SDS011;46082;43.034;-0.072;2022-10-17T03:48:54;6.05;;;1.23;;
59514;SDS011;46082;43.034;-0.072;2022-10-17T03:51:20;3.13;;;1.10;;
59514;SDS011;46082;43.034;-0.072;2022-10-17T03:53:46;1.80;;;0.90;;
59514;SDS011;46082;43.034;-0.072;2022-10-17T03:56:14;2.75;;;1.45;;
59514;SDS011;46082;43.034;-0.072;2022-10-17T03:58:41;1.63;;;1.23;;
59514;SDS011;46082;43.034;-0.072;2022-10-17T04:01:08;1.10;;;0.90;;
59514;SDS011;46082;43.034;-0.072;2022-10-17T04:03:34;2.33;;;1.45;;
59514;SDS011;46082;43.034;-0.072;2022-10-17T04:06:02;1.65;;;0.90;;
59514;SDS011;46082;43.034;-0.072;2022-10-17T04:08:28;2.17;;;1.05;;
59514;SDS011;46082;43.034;-0.072;2022-10-17T04:10:58;6.65;;;1.00;;
59514;SDS011;46082;43.034;-0.072;2022-10-17T04:13:25;2.50;;;1.10;;
59514;SDS011;46082;43.034;-0.072;2022-10-17T04:16:02;4.53;;;1.10;;
59514;SDS011;46082;43.034;-0.072;2022-10-17T04:18:28;4.60;;;1.67;;
59514;SDS011;46082;43.034;-0.072;2022-10-17T04:20:54;1.52;;;1.00;;
59514;SDS011;46082;43.034;-0.072;2022-10-17T04:23:21;3.90;;;1.00;;
59514;SDS011;46082;43.034;-0.072;2022-10-17T04:25:47;1.48;;;1.10;;
59514;SDS011;46082;43.034;-0.072;2022-10-17T04:28:14;4.18;;;1.30;;
59514;SDS011;46082;43.034;-0.072;2022-10-17T04:30:40;5.25;;;1.65;;
59514;SDS011;46082;43.034;-0.072;2022-10-17T04:33:06;4.30;;;1.00;;
59514;SDS011;46082;43.034;-0.072;2022-10-17T04:35:32;2.97;;;1.35;;
59514;SDS011;46082;43.034;-0.072;2022-10-17T04:37:59;3.55;;;1.20;;
59514;SDS011;46082;43.034;-0.072;2022-10-17T04:40:25;1.92;;;1.17;;
59514;SDS011;46082;43.034;-0.072;2022-10-17T04:42:51;1.42;;;0.95;;
59514;SDS011;46082;43.034;-0.072;2022-10-17T04:45:17;6.15;;;1.33;;
59514;SDS011;46082;43.034;-0.072;2022-10-17T04:47:43;3.10;;;1.35;;
59514;SDS011;46082;43.034;-0.072;2022-10-17T04:50:10;3.25;;;1.10;;
59514;SDS011;46082;43.034;-0.072;2022-10-17T04:52:36;1.10;;;1.00;;
59514;SDS011;46082;43.034;-0.072;2022-10-17T04:55:03;2.92;;;0.95;;
59514;SDS011;46082;43.034;-0.072;2022-10-17T04:57:29;4.35;;;1.10;;
59514;SDS011;46082;43.034;-0.072;2022-10-17T04:59:55;2.72;;;1.20;;
59514;SDS011;46082;43.034;-0.072;2022-10-17T05:02:22;2.03;;;1.05;;
59514;SDS011;46082;43.034;-0.072;2022-10-17T05:04:48;3.47;;;1.90;;
59514;SDS011;46082;43.034;-0.072;2022-10-17T05:07:14;3.40;;;1.05;;
59514;SDS011;46082;43.034;-0.072;2022-10-17T05:09:40;3.78;;;1.25;;
59514;SDS011;46082;43.034;-0.072;2022-10-17T05:12:06;3.13;;;1.42;;
59514;SDS011;46082;43.034;-0.072;2022-10-17T05:14:32;4.97;;;1.27;;
59514;SDS011;46082;43.034;-0.072;2022-10-17T05:16:58;3.30;;;1.38;;
59514;SDS011;46082;43.034;-0.072;2022-10-17T05:19:24;2.17;;;1.20;;
59514;SDS011;46082;43.034;-0.072;2022-10-17T05:21:50;1.45;;;1.15;;
59514;SDS011;46082;43.034;-0.072;2022-10-17T05:24:16;1.88;;;1.35;;
59514;SDS011;46082;43.034;-0.072;2022-10-17T05:26:43;3.47;;;1.33;;
59514;SDS011;46082;43.034;-0.072;2022-10-17T05:29:09;6.05;;;1.70;;
59514;SDS011;46082;43.034;-0.072;2022-10-17T05:31:36;3.03;;;1.60;;
59514;SDS011;46082;43.034;-0.072;2022-10-17T05:34:02;3.50;;;1.77;;
59514;SDS011;46082;43.034;-0.072;2022-10-17T05:36:29;4.93;;;1.13;;
59514;SDS011;46082;43.034;-0.072;2022-10-17T05:38:55;3.60;;;1.50;;
59514;SDS011;46082;43.034;-0.072;2022-10-17T05:41:21;6.70;;;1.30;;
59514;SDS011;46082;43.034;-0.072;2022-10-17T05:43:47;3.90;;;1.80;;
59514;SDS011;46082;43.034;-0.072;2022-10-17T05:46:14;5.18;;;1.55;;
59514;SDS011;46082;43.034;-0.072;2022-10-17T05:48:40;1.90;;;1.15;;
59514;SDS011;46082;43.034;-0.072;2022-10-17T05:51:07;7.30;;;1.42;;
59514;SDS011;46082;43.034;-0.072;2022-10-17T05:53:34;7.15;;;1.52;;
59514;SDS011;46082;43.034;-0.072;2022-10-17T05:56:01;1.73;;;1.30;;
59514;SDS011;46082;43.034;-0.072;2022-10-17T05:58:27;5.82;;;1.42;;
59514;SDS011;46082;43.034;-0.072;2022-10-17T06:00:57;4.10;;;1.27;;
59514;SDS011;46082;43.034;-0.072;2022-10-17T06:03:23;7.68;;;1.30;;
59514;SDS011;46082;43.034;-0.072;2022-10-17T06:05:50;3.28;;;1.35;;
59514;SDS011;46082;43.034;-0.072;2022-10-17T06:08:16;3.38;;;1.27;;
59514;SDS011;46082;43.034;-0.072;2022-10-17T06:10:42;4.13;;;1.48;;
59514;SDS011;46082;43.034;-0.072;2022-10-17T06:13:09;5.18;;;1.70;;
59514;SDS011;46082;43.034;-0.072;2022-10-17T06:15:35;4.35;;;1.92;;
59514;SDS011;46082;43.034;-0.072;2022-10-17T06:18:01;1.88;;;1.60;;
59514;SDS011;46082;43.034;-0.072;2022-10-17T06:20:27;3.25;;;1.33;;
59514;SDS011;46082;43.034;-0.072;2022-10-17T06:22:53;4.72;;;1.45;;
59514;SDS011;46082;43.034;-0.072;2022-10-17T06:25:20;2.22;;;1.52;;
59514;SDS011;46082;43.034;-0.072;2022-10-17T06:27:48;4.55;;;1.80;;
59514;SDS011;46082;43.034;-0.072;2022-10-17T06:30:14;3.13;;;1.52;;
59514;SDS011;46082;43.034;-0.072;2022-10-17T06:32:40;2.78;;;1.38;;
59514;SDS011;46082;43.034;-0.072;2022-10-17T06:35:07;4.03;;;2.10;;
59514;SDS011;46082;43.034;-0.072;2022-10-17T06:37:33;4.20;;;1.90;;
59514;SDS011;46082;43.034;-0.072;2022-10-17T06:40:00;3.30;;;1.95;;
59514;SDS011;46082;43.034;-0.072;2022-10-17T06:42:26;1.88;;;1.35;;
59514;SDS011;46082;43.034;-0.072;2022-10-17T06:44:53;2.53;;;2.03;;
59514;SDS011;46082;43.034;-0.072;2022-10-17T06:47:19;2.13;;;1.30;;
59514;SDS011;46082;43.034;-0.072;2022-10-17T06:49:45;4.57;;;1.90;;
59514;SDS011;46082;43.034;-0.072;2022-10-17T06:52:12;8.85;;;1.67;;
59514;SDS011;46082;43.034;-0.072;2022-10-17T06:54:42;3.65;;;1.63;;
59514;SDS011;46082;43.034;-0.072;2022-10-17T06:57:08;5.13;;;1.55;;
59514;SDS011;46082;43.034;-0.072;2022-10-17T06:59:35;3.72;;;1.67;;
59514;SDS011;46082;43.034;-0.072;2022-10-17T07:02:01;7.60;;;1.60;;
59514;SDS011;46082;43.034;-0.072;2022-10-17T07:04:27;4.88;;;1.42;;
59514;SDS011;46082;43.034;-0.072;2022-10-17T07:06:54;5.75;;;2.42;;
59514;SDS011;46082;43.034;-0.072;2022-10-17T07:09:20;4.22;;;1.80;;
59514;SDS011;46082;43.034;-0.072;2022-10-17T07:11:47;1.98;;;1.33;;
59514;SDS011;46082;43.034;-0.072;2022-10-17T07:14:13;5.30;;;2.00;;
59514;SDS011;46082;43.034;-0.072;2022-10-17T07:16:39;1.52;;;1.38;;
59514;SDS011;46082;43.034;-0.072;2022-10-17T07:19:05;4.68;;;1.40;;
59514;SDS011;46082;43.034;-0.072;2022-10-17T07:21:31;3.35;;;1.77;;
59514;SDS011;46082;43.034;-0.072;2022-10-17T07:23:57;2.55;;;1.80;;
59514;SDS011;46082;43.034;-0.072;2022-10-17T07:26:23;4.80;;;1.90;;
59514;SDS011;46082;43.034;-0.072;2022-10-17T07:28:50;4.30;;;1.40;;
59514;SDS011;46082;43.034;-0.072;2022-10-17T07:31:17;2.65;;;1.80;;
59514;SDS011;46082;43.034;-0.072;2022-10-17T07:33:44;6.75;;;1.65;;
59514;SDS011;46082;43.034;-0.072;2022-10-17T07:36:11;8.68;;;1.73;;
59514;SDS011;46082;43.034;-0.072;2022-10-17T07:38:37;4.57;;;1.83;;
59514;SDS011;46082;43.034;-0.072;2022-10-17T07:41:04;2.65;;;1.50;;
59514;SDS011;46082;43.034;-0.072;2022-10-17T07:43:31;2.65;;;1.85;;
59514;SDS011;46082;43.034;-0.072;2022-10-17T07:45:57;4.90;;;1.50;;
59514;SDS011;46082;43.034;-0.072;2022-10-17T07:48:25;6.93;;;1.58;;
59514;SDS011;46082;43.034;-0.072;2022-10-17T07:50:51;2.78;;;1.67;;
59514;SDS011;46082;43.034;-0.072;2022-10-17T07:53:17;1.95;;;1.67;;
59514;SDS011;46082;43.034;-0.072;2022-10-17T07:55:44;4.30;;;1.42;;
59514;SDS011;46082;43.034;-0.072;2022-10-17T07:58:12;2.90;;;1.80;;
59514;SDS011;46082;43.034;-0.072;2022-10-17T08:00:39;3.53;;;1.40;;
59514;SDS011;46082;43.034;-0.072;2022-10-17T08:03:05;4.38;;;1.67;;
59514;SDS011;46082;43.034;-0.072;2022-10-17T08:05:32;2.55;;;1.77;;
59514;SDS011;46082;43.034;-0.072;2022-10-17T08:07:58;4.47;;;1.63;;
59514;SDS011;46082;43.034;-0.072;2022-10-17T08:10:24;3.75;;;1.67;;
59514;SDS011;46082;43.034;-0.072;2022-10-17T08:12:54;2.10;;;1.67;;
59514;SDS011;46082;43.034;-0.072;2022-10-17T08:15:21;9.18;;;1.40;;
59514;SDS011;46082;43.034;-0.072;2022-10-17T08:17:47;1.70;;;1.55;;
59514;SDS011;46082;43.034;-0.072;2022-10-17T08:20:13;4.78;;;2.92;;
59514;SDS011;46082;43.034;-0.072;2022-10-17T08:22:40;4.78;;;1.77;;
59514;SDS011;46082;43.034;-0.072;2022-10-17T08:25:06;2.72;;;1.58;;
59514;SDS011;46082;43.034;-0.072;2022-10-17T08:27:33;2.45;;;1.40;;
59514;SDS011;46082;43.034;-0.072;2022-10-17T08:29:59;3.30;;;1.50;;
59514;SDS011;46082;43.034;-0.072;2022-10-17T08:32:26;3.83;;;1.45;;
59514;SDS011;46082;43.034;-0.072;2022-10-17T08:34:53;5.72;;;1.83;;
59514;SDS011;46082;43.034;-0.072;2022-10-17T08:37:20;3.47;;;1.67;;
59514;SDS011;46082;43.034;-0.072;2022-10-17T08:39:46;5.60;;;2.10;;
59514;SDS011;46082;43.034;-0.072;2022-10-17T08:47:23;7.10;;;2.00;;
59514;SDS011;46082;43.034;-0.072;2022-10-17T08:49:53;5.97;;;1.70;;
59514;SDS011;46082;43.034;-0.072;2022-10-17T08:54:47;4.55;;;1.55;;
59514;SDS011;46082;43.034;-0.072;2022-10-17T08:57:15;4.78;;;1.50;;
59514;SDS011;46082;43.034;-0.072;2022-10-17T08:59:42;9.32;;;2.33;;
59514;SDS011;46082;43.034;-0.072;2022-10-17T09:04:57;5.00;;;1.50;;
59514;SDS011;46082;43.034;-0.072;2022-10-17T09:12:24;7.43;;;1.52;;
59514;SDS011;46082;43.034;-0.072;2022-10-17T09:20:27;5.10;;;1.55;;
59514;SDS011;46082;43.034;-0.072;2022-10-17T09:22:59;3.63;;;1.40;;
59514;SDS011;46082;43.034;-0.072;2022-10-17T09:25:25;1.53;;;1.43;;
59514;SDS011;46082;43.034;-0.072;2022-10-17T09:28:00;2.22;;;1.33;;
59514;SDS011;46082;43.034;-0.072;2022-10-17T09:30:30;2.95;;;1.40;;
59514;SDS011;46082;43.034;-0.072;2022-10-17T09:32:58;3.25;;;1.30;;
59514;SDS011;46082;43.034;-0.072;2022-10-17T09:35:26;2.50;;;0.95;;
59514;SDS011;46082;43.034;-0.072;2022-10-17T09:37:54;2.88;;;1.30;;
59514;SDS011;46082;43.034;-0.072;2022-10-17T09:40:23;5.45;;;0.90;;
59514;SDS011;46082;43.034;-0.072;2022-10-17T09:42:49;0.80;;;0.68;;
59514;SDS011;46082;43.034;-0.072;2022-10-17T09:45:18;1.00;;;0.73;;
59514;SDS011;46082;43.034;-0.072;2022-10-17T09:50:30;2.03;;;0.90;;
59514;SDS011;46082;43.034;-0.072;2022-10-17T09:53:02;1.00;;;0.82;;
59514;SDS011;46082;43.034;-0.072;2022-10-17T09:55:44;3.60;;;1.08;;
59514;SDS011;46082;43.034;-0.072;2022-10-17T09:58:14;4.30;;;1.00;;
59514;SDS011;46082;43.034;-0.072;2022-10-17T10:00:42;5.25;;;1.42;;
59514;SDS011;46082;43.034;-0.072;2022-10-17T10:05:42;0.63;;;0.63;;
59514;SDS011;46082;43.034;-0.072;2022-10-17T10:08:12;1.02;;;0.65;;
59514;SDS011;46082;43.034;-0.072;2022-10-17T10:10:39;0.60;;;0.60;;
59514;SDS011;46082;43.034;-0.072;2022-10-17T10:15:38;1.30;;;0.50;;
59514;SDS011;46082;43.034;-0.072;2022-10-17T10:21:35;0.55;;;0.55;;
59514;SDS011;46082;43.034;-0.072;2022-10-17T10:23:37;1.27;;;0.45;;
59514;SDS011;46082;43.034;-0.072;2022-10-17T10:26:16;0.35;;;0.35;;
59514;SDS011;46082;43.034;-0.072;2022-10-17T10:28:49;1.90;;;0.40;;
59514;SDS011;46082;43.034;-0.072;2022-10-17T10:31:15;1.55;;;0.47;;
59514;SDS011;46082;43.034;-0.072;2022-10-17T10:33:50;1.52;;;0.70;;
59514;SDS011;46082;43.034;-0.072;2022-10-17T10:36:16;0.57;;;0.40;;
59514;SDS011;46082;43.034;-0.072;2022-10-17T10:38:54;0.30;;;0.30;;
59514;SDS011;46082;43.034;-0.072;2022-10-17T10:41:21;0.57;;;0.57;;
59514;SDS011;46082;43.034;-0.072;2022-10-17T10:43:52;0.43;;;0.43;;
59514;SDS011;46082;43.034;-0.072;2022-10-17T10:46:24;0.20;;;0.20;;
59514;SDS011;46082;43.034;-0.072;2022-10-17T10:49:00;0.30;;;0.30;;
59514;SDS011;46082;43.034;-0.072;2022-10-17T10:51:38;0.60;;;0.40;;
59514;SDS011;46082;43.034;-0.072;2022-10-17T10:54:09;0.30;;;0.30;;
59514;SDS011;46082;43.034;-0.072;2022-10-17T10:56:57;0.30;;;0.30;;
59514;SDS011;46082;43.034;-0.072;2022-10-17T10:59:28;0.93;;;0.40;;
59514;SDS011;46082;43.034;-0.072;2022-10-17T11:07:07;0.70;;;0.70;;
59514;SDS011;46082;43.034;-0.072;2022-10-17T11:12:04;1.23;;;0.35;;
59514;SDS011;46082;43.034;-0.072;2022-10-17T11:14:37;0.70;;;0.57;;
59514;SDS011;46082;43.034;-0.072;2022-10-17T11:17:17;0.20;;;0.20;;
59514;SDS011;46082;43.034;-0.072;2022-10-17T11:19:55;0.20;;;0.20;;
59514;SDS011;46082;43.034;-0.072;2022-10-17T11:22:37;0.38;;;0.38;;
59514;SDS011;46082;43.034;-0.072;2022-10-17T11:27:37;0.20;;;0.20;;
59514;SDS011;46082;43.034;-0.072;2022-10-17T11:30:03;0.32;;;0.30;;
59514;SDS011;46082;43.034;-0.072;2022-10-17T11:32:35;0.60;;;0.30;;
59514;SDS011;46082;43.034;-0.072;2022-10-17T11:37:50;2.17;;;0.50;;
59514;SDS011;46082;43.034;-0.072;2022-10-17T11:40:20;0.43;;;0.40;;
59514;SDS011;46082;43.034;-0.072;2022-10-17T11:42:57;0.40;;;0.40;;
59514;SDS011;46082;43.034;-0.072;2022-10-17T11:45:25;1.73;;;0.40;;
59514;SDS011;46082;43.034;-0.072;2022-10-17T11:48:05;0.28;;;0.25;;
59514;SDS011;46082;43.034;-0.072;2022-10-17T11:50:33;0.57;;;0.40;;
59514;SDS011;46082;43.034;-0.072;2022-10-17T11:53:07;0.80;;;0.40;;
59514;SDS011;46082;43.034;-0.072;2022-10-17T11:55:34;0.60;;;0.30;;
59514;SDS011;46082;43.034;-0.072;2022-10-17T11:58:11;1.55;;;0.65;;
59514;SDS011;46082;43.034;-0.072;2022-10-17T12:08:26;0.22;;;0.20;;
59514;SDS011;46082;43.034;-0.072;2022-10-17T12:15:55;0.32;;;0.30;;
59514;SDS011;46082;43.034;-0.072;2022-10-17T12:18:24;0.40;;;0.40;;
59514;SDS011;46082;43.034;-0.072;2022-10-17T12:20:57;1.85;;;0.40;;
59514;SDS011;46082;43.034;-0.072;2022-10-17T12:23:27;0.47;;;0.30;;
59514;SDS011;46082;43.034;-0.072;2022-10-17T12:26:04;0.50;;;0.32;;
59514;SDS011;46082;43.034;-0.072;2022-10-17T12:31:05;2.13;;;0.55;;
59514;SDS011;46082;43.034;-0.072;2022-10-17T12:33:53;0.60;;;0.30;;
59514;SDS011;46082;43.034;-0.072;2022-10-17T12:46:43;0.20;;;0.20;;
59514;SDS011;46082;43.034;-0.072;2022-10-17T12:49:20;0.20;;;0.20;;
59514;SDS011;46082;43.034;-0.072;2022-10-17T12:54:36;0.93;;;0.40;;
59514;SDS011;46082;43.034;-0.072;2022-10-17T12:57:08;0.65;;;0.30;;
59514;SDS011;46082;43.034;-0.072;2022-10-17T12:59:39;0.32;;;0.32;;
59514;SDS011;46082;43.034;-0.072;2022-10-17T13:02:11;0.55;;;0.40;;
59514;SDS011;46082;43.034;-0.072;2022-10-17T13:07:17;2.35;;;0.35;;
59514;SDS011;46082;43.034;-0.072;2022-10-17T13:09:44;0.73;;;0.38;;
59514;SDS011;46082;43.034;-0.072;2022-10-17T13:12:12;0.68;;;0.30;;
59514;SDS011;46082;43.034;-0.072;2022-10-17T13:14:40;0.63;;;0.40;;
59514;SDS011;46082;43.034;-0.072;2022-10-17T13:17:19;0.57;;;0.50;;
59514;SDS011;46082;43.034;-0.072;2022-10-17T13:19:46;3.70;;;0.50;;
59514;SDS011;46082;43.034;-0.072;2022-10-17T13:22:16;1.00;;;0.40;;
59514;SDS011;46082;43.034;-0.072;2022-10-17T13:24:43;2.70;;;0.40;;
59514;SDS011;46082;43.034;-0.072;2022-10-17T13:27:23;1.38;;;0.45;;
59514;SDS011;46082;43.034;-0.072;2022-10-17T13:29:49;0.40;;;0.40;;
59514;SDS011;46082;43.034;-0.072;2022-10-17T13:32:15;3.15;;;0.43;;
59514;SDS011;46082;43.034;-0.072;2022-10-17T13:34:42;2.65;;;0.60;;
59514;SDS011;46082;43.034;-0.072;2022-10-17T13:37:11;0.20;;;0.20;;
59514;SDS011;46082;43.034;-0.072;2022-10-17T13:39:40;3.85;;;0.88;;
59514;SDS011;46082;43.034;-0.072;2022-10-17T13:42:15;0.68;;;0.35;;
59514;SDS011;46082;43.034;-0.072;2022-10-17T13:44:42;2.58;;;0.47;;
59514;SDS011;46082;43.034;-0.072;2022-10-17T13:47:19;1.92;;;0.50;;
59514;SDS011;46082;43.034;-0.072;2022-10-17T13:49:45;0.68;;;0.30;;
59514;SDS011;46082;43.034;-0.072;2022-10-17T13:52:22;5.13;;;0.40;;
59514;SDS011;46082;43.034;-0.072;2022-10-17T13:54:50;1.08;;;0.45;;
59514;SDS011;46082;43.034;-0.072;2022-10-17T13:57:27;2.15;;;0.63;;
59514;SDS011;46082;43.034;-0.072;2022-10-17T13:59:58;2.35;;;0.55;;
59514;SDS011;46082;43.034;-0.072;2022-10-17T14:02:28;1.52;;;0.60;;
59514;SDS011;46082;43.034;-0.072;2022-10-17T14:05:02;1.60;;;0.30;;
59514;SDS011;46082;43.034;-0.072;2022-10-17T14:07:39;0.93;;;0.60;;
59514;SDS011;46082;43.034;-0.072;2022-10-17T14:10:16;0.60;;;0.50;;
59514;SDS011;46082;43.034;-0.072;2022-10-17T14:12:43;3.95;;;1.38;;
59514;SDS011;46082;43.034;-0.072;2022-10-17T14:15:11;2.05;;;0.60;;
59514;SDS011;46082;43.034;-0.072;2022-10-17T14:17:38;1.75;;;0.60;;
59514;SDS011;46082;43.034;-0.072;2022-10-17T14:20:04;1.55;;;0.68;;
59514;SDS011;46082;43.034;-0.072;2022-10-17T14:22:35;4.40;;;1.05;;
59514;SDS011;46082;43.034;-0.072;2022-10-17T14:25:02;4.82;;;1.10;;
59514;SDS011;46082;43.034;-0.072;2022-10-17T14:27:36;4.20;;;0.77;;
59514;SDS011;46082;43.034;-0.072;2022-10-17T14:30:06;3.17;;;1.10;;
59514;SDS011;46082;43.034;-0.072;2022-10-17T14:32:59;1.95;;;0.55;;
59514;SDS011;46082;43.034;-0.072;2022-10-17T14:35:27;3.85;;;0.82;;
59514;SDS011;46082;43.034;-0.072;2022-10-17T14:37:58;1.15;;;0.57;;
59514;SDS011;46082;43.034;-0.072;2022-10-17T14:40:25;2.13;;;0.70;;
59514;SDS011;46082;43.034;-0.072;2022-10-17T14:42:52;8.20;;;0.90;;
59514;SDS011;46082;43.034;-0.072;2022-10-17T14:45:24;3.08;;;0.57;;
59514;SDS011;46082;43.034;-0.072;2022-10-17T14:47:51;5.32;;;0.70;;
59514;SDS011;46082;43.034;-0.072;2022-10-17T14:50:25;1.92;;;0.63;;
59514;SDS011;46082;43.034;-0.072;2022-10-17T14:55:26;0.95;;;0.50;;
59514;SDS011;46082;43.034;-0.072;2022-10-17T14:57:52;3.25;;;0.65;;
59514;SDS011;46082;43.034;-0.072;2022-10-17T15:00:19;0.70;;;0.70;;
59514;SDS011;46082;43.034;-0.072;2022-10-17T15:02:45;2.38;;;1.00;;
59514;SDS011;46082;43.034;-0.072;2022-10-17T15:05:12;2.40;;;0.73;;
59514;SDS011;46082;43.034;-0.072;2022-10-17T15:07:39;4.78;;;0.70;;
59514;SDS011;46082;43.034;-0.072;2022-10-17T15:10:05;0.85;;;0.50;;
59514;SDS011;46082;43.034;-0.072;2022-10-17T15:12:32;2.20;;;0.70;;
59514;SDS011;46082;43.034;-0.072;2022-10-17T15:14:58;3.00;;;0.77;;
59514;SDS011;46082;43.034;-0.072;2022-10-17T15:17:28;4.80;;;0.77;;
59514;SDS011;46082;43.034;-0.072;2022-10-17T15:19:54;6.35;;;1.02;;
59514;SDS011;46082;43.034;-0.072;2022-10-17T15:22:21;2.67;;;0.98;;
59514;SDS011;46082;43.034;-0.072;2022-10-17T15:24:47;3.15;;;1.23;;
59514;SDS011;46082;43.034;-0.072;2022-10-17T15:27:18;4.45;;;1.02;;
59514;SDS011;46082;43.034;-0.072;2022-10-17T15:29:44;2.40;;;1.23;;
59514;SDS011;46082;43.034;-0.072;2022-10-17T15:32:10;0.70;;;0.70;;
59514;SDS011;46082;43.034;-0.072;2022-10-17T15:34:37;1.65;;;0.73;;
59514;SDS011;46082;43.034;-0.072;2022-10-17T15:37:04;1.45;;;0.70;;
59514;SDS011;46082;43.034;-0.072;2022-10-17T15:39:31;1.25;;;0.80;;
59514;SDS011;46082;43.034;-0.072;2022-10-17T15:41:57;1.60;;;0.55;;
59514;SDS011;46082;43.034;-0.072;2022-10-17T15:44:24;0.90;;;0.60;;
59514;SDS011;46082;43.034;-0.072;2022-10-17T15:46:50;3.22;;;0.93;;
59514;SDS011;46082;43.034;-0.072;2022-10-17T15:49:17;4.00;;;0.80;;
59514;SDS011;46082;43.034;-0.072;2022-10-17T15:51:44;0.75;;;0.70;;
59514;SDS011;46082;43.034;-0.072;2022-10-17T15:54:10;0.73;;;0.63;;
59514;SDS011;46082;43.034;-0.072;2022-10-17T15:56:37;1.92;;;0.73;;
59514;SDS011;46082;43.034;-0.072;2022-10-17T15:59:05;1.20;;;0.77;;
59514;SDS011;46082;43.034;-0.072;2022-10-17T16:01:32;3.83;;;0.70;;
59514;SDS011;46082;43.034;-0.072;2022-10-17T16:03:58;5.50;;;0.88;;
59514;SDS011;46082;43.034;-0.072;2022-10-17T16:06:25;2.72;;;0.63;;
59514;SDS011;46082;43.034;-0.072;2022-10-17T16:08:51;1.75;;;0.68;;
59514;SDS011;46082;43.034;-0.072;2022-10-17T16:11:18;1.60;;;0.90;;
59514;SDS011;46082;43.034;-0.072;2022-10-17T16:13:48;3.22;;;0.88;;
59514;SDS011;46082;43.034;-0.072;2022-10-17T16:16:15;3.40;;;0.70;;
59514;SDS011;46082;43.034;-0.072;2022-10-17T16:18:41;4.00;;;0.88;;
59514;SDS011;46082;43.034;-0.072;2022-10-17T16:21:11;3.55;;;1.05;;
59514;SDS011;46082;43.034;-0.072;2022-10-17T16:23:38;2.65;;;0.90;;
59514;SDS011;46082;43.034;-0.072;2022-10-17T16:26:04;4.80;;;0.90;;
59514;SDS011;46082;43.034;-0.072;2022-10-17T16:28:31;7.53;;;1.20;;
59514;SDS011;46082;43.034;-0.072;2022-10-17T16:30:57;5.75;;;1.02;;
59514;SDS011;46082;43.034;-0.072;2022-10-17T16:33:23;4.47;;;0.90;;